createdAt,value
2022-08-02T00:00:04.514Z,0.00
2022-08-02T00:01:04.617Z,0.00
2022-08-02T00:02:04.521Z,0.00
2022-08-02T00:03:04.453Z,0.00
2022-08-02T00:04:04.432Z,0.00
2022-08-02T00:05:04.411Z,0.00
2022-08-02T00:06:04.393Z,0.00
2022-08-02T00:07:04.366Z,0.00
2022-08-02T00:08:04.346Z,0.00
2022-08-02T00:09:04.324Z,0.00
2022-08-02T00:10:04.305Z,0.00
2022-08-02T00:11:04.281Z,0.00
2022-08-02T00:12:04.267Z,0.00
2022-08-02T00:13:04.238Z,0.00
2022-08-02T00:14:04.219Z,0.00
2022-08-02T00:15:04.196Z,0.00
2022-08-02T00:16:04.177Z,0.00
2022-08-02T00:17:04.161Z,0.00
2022-08-02T00:18:04.135Z,0.00
2022-08-02T00:19:04.111Z,0.00
2022-08-02T00:20:04.091Z,0.00
2022-08-02T00:21:04.069Z,0.00
2022-08-02T00:22:04.050Z,0.00
2022-08-02T00:23:04.027Z,0.00
2022-08-02T00:24:29.538Z,0.00
2022-08-02T00:25:03.985Z,0.00
2022-08-02T00:26:03.966Z,0.00
2022-08-02T00:27:09.207Z,0.00
2022-08-02T00:28:03.921Z,0.00
2022-08-02T00:29:03.900Z,0.00
2022-08-02T00:30:03.882Z,0.00
2022-08-02T00:31:03.856Z,0.00
2022-08-02T00:32:03.836Z,0.00
2022-08-02T00:33:03.814Z,0.00
2022-08-02T00:34:26.164Z,0.00
2022-08-02T00:35:03.772Z,0.00
2022-08-02T00:36:03.750Z,0.00
2022-08-02T00:37:03.745Z,0.00
2022-08-02T00:38:03.708Z,0.00
2022-08-02T00:39:03.684Z,0.00
2022-08-02T00:40:03.665Z,0.00
2022-08-02T00:41:03.641Z,0.00
2022-08-02T00:42:03.638Z,0.00
2022-08-02T00:43:03.598Z,0.00
2022-08-02T00:44:03.580Z,0.00
2022-08-02T00:45:03.555Z,0.00
2022-08-02T00:46:04.064Z,0.00
2022-08-02T00:47:03.513Z,0.00
2022-08-02T00:48:03.492Z,0.00
2022-08-02T00:49:03.547Z,0.00
2022-08-02T00:50:03.449Z,0.00
2022-08-02T00:51:03.425Z,0.00
2022-08-02T00:52:03.409Z,0.00
2022-08-02T00:53:03.382Z,0.00
2022-08-02T00:54:03.362Z,0.00
2022-08-02T00:55:03.339Z,0.00
2022-08-02T00:56:03.321Z,0.00
2022-08-02T00:57:03.297Z,0.00
2022-08-02T00:58:03.277Z,0.00
2022-08-02T00:59:03.256Z,0.00
2022-08-02T01:00:03.235Z,0.00
2022-08-02T01:01:03.275Z,0.00
2022-08-02T01:02:03.248Z,0.00
2022-08-02T01:03:03.169Z,0.00
2022-08-02T01:04:03.146Z,0.00
2022-08-02T01:05:03.124Z,0.00
2022-08-02T01:06:17.952Z,0.00
2022-08-02T01:07:03.079Z,0.00
2022-08-02T01:08:03.060Z,0.00
2022-08-02T01:09:03.037Z,0.00
2022-08-02T01:10:03.019Z,0.00
2022-08-02T01:11:02.993Z,0.00
2022-08-02T01:12:03.004Z,0.00
2022-08-02T01:13:02.951Z,0.00
2022-08-02T01:14:02.930Z,0.00
2022-08-02T01:15:02.921Z,0.00
2022-08-02T01:16:02.889Z,0.00
2022-08-02T01:17:02.863Z,0.00
2022-08-02T01:18:02.844Z,0.00
2022-08-02T01:19:02.821Z,0.00
2022-08-02T01:20:02.800Z,0.00
2022-08-02T01:21:02.777Z,0.00
2022-08-02T01:22:02.757Z,0.00
2022-08-02T01:23:03.173Z,0.00
2022-08-02T01:24:02.712Z,0.00
2022-08-02T01:25:02.690Z,0.00
2022-08-02T01:26:02.669Z,0.00
2022-08-02T01:27:02.646Z,0.00
2022-08-02T01:28:02.626Z,0.00
2022-08-02T01:29:02.613Z,0.00
2022-08-02T01:30:02.582Z,0.00
2022-08-02T01:31:02.559Z,0.00
2022-08-02T01:32:02.539Z,0.00
2022-08-02T01:33:02.516Z,0.00
2022-08-02T01:34:02.495Z,0.00
2022-08-02T01:35:02.472Z,0.00
2022-08-02T01:36:02.451Z,0.00
2022-08-02T01:37:02.429Z,0.00
2022-08-02T01:38:02.409Z,0.00
2022-08-02T01:39:02.386Z,0.00
2022-08-02T01:40:02.364Z,0.00
2022-08-02T01:41:02.342Z,0.00
2022-08-02T01:42:02.321Z,0.00
2022-08-02T01:43:02.298Z,0.00
2022-08-02T01:44:02.277Z,0.00
2022-08-02T01:45:02.257Z,0.00
2022-08-02T01:46:02.237Z,0.00
2022-08-02T01:47:02.210Z,0.00
2022-08-02T01:48:02.191Z,0.00
2022-08-02T01:49:02.229Z,0.00
2022-08-02T01:50:02.147Z,0.00
2022-08-02T01:51:02.123Z,0.00
2022-08-02T01:52:02.102Z,0.00
2022-08-02T01:53:02.079Z,0.00
2022-08-02T01:54:02.060Z,0.00
2022-08-02T01:55:02.035Z,0.00
2022-08-02T01:56:02.018Z,0.00
2022-08-02T01:57:01.993Z,0.00
2022-08-02T01:58:01.981Z,0.00
2022-08-02T01:59:01.949Z,0.00
2022-08-02T02:00:01.933Z,0.00
2022-08-02T02:01:01.982Z,0.00
2022-08-02T02:02:01.884Z,0.00
2022-08-02T02:03:01.860Z,0.00
2022-08-02T02:04:01.840Z,0.00
2022-08-02T02:05:01.816Z,0.00
2022-08-02T02:06:01.797Z,0.00
2022-08-02T02:07:01.774Z,0.00
2022-08-02T02:08:01.751Z,0.00
2022-08-02T02:09:01.729Z,0.00
2022-08-02T02:10:01.708Z,0.00
2022-08-02T02:12:06.462Z,0.00
2022-08-02T02:12:11.940Z,0.00
2022-08-02T02:13:01.641Z,0.00
2022-08-02T02:14:01.620Z,0.00
2022-08-02T02:15:01.596Z,0.00
2022-08-02T02:16:01.579Z,0.00
2022-08-02T02:17:01.553Z,0.00
2022-08-02T02:18:12.951Z,0.00
2022-08-02T02:19:01.508Z,0.00
2022-08-02T02:20:01.491Z,0.00
2022-08-02T02:21:01.465Z,0.00
2022-08-02T02:22:01.592Z,0.00
2022-08-02T02:23:01.424Z,0.00
2022-08-02T02:24:01.400Z,0.00
2022-08-02T02:25:01.378Z,0.00
2022-08-02T02:26:01.357Z,0.00
2022-08-02T02:27:01.332Z,0.00
2022-08-02T02:28:01.311Z,0.00
2022-08-02T02:29:01.294Z,0.00
2022-08-02T02:30:01.269Z,0.00
2022-08-02T02:31:01.246Z,0.00
2022-08-02T02:32:01.222Z,0.00
2022-08-02T02:33:01.203Z,0.00
2022-08-02T02:34:01.179Z,0.00
2022-08-02T02:35:01.156Z,0.00
2022-08-02T02:36:01.136Z,0.00
2022-08-02T02:37:01.113Z,0.00
2022-08-02T02:38:01.091Z,0.00
2022-08-02T02:39:01.069Z,0.00
2022-08-02T02:40:01.049Z,0.00
2022-08-02T02:41:01.025Z,0.00
2022-08-02T02:42:01.002Z,0.00
2022-08-02T02:43:00.980Z,0.00
2022-08-02T02:44:00.959Z,0.00
2022-08-02T02:45:00.936Z,0.00
2022-08-02T02:46:00.917Z,0.00
2022-08-02T02:47:00.891Z,0.00
2022-08-02T02:48:00.868Z,0.00
2022-08-02T02:49:00.895Z,0.00
2022-08-02T02:50:00.825Z,0.00
2022-08-02T02:51:00.804Z,0.00
2022-08-02T02:52:00.782Z,0.00
2022-08-02T02:53:00.759Z,0.00
2022-08-02T02:54:33.212Z,0.00
2022-08-02T02:55:00.713Z,0.00
2022-08-02T02:56:02.618Z,0.00
2022-08-02T02:57:00.670Z,0.00
2022-08-02T02:58:00.646Z,0.00
2022-08-02T02:59:00.660Z,0.00
2022-08-02T03:00:00.611Z,0.00
2022-08-02T03:01:00.634Z,0.00
2022-08-02T03:02:00.603Z,0.00
2022-08-02T03:03:00.535Z,0.00
2022-08-02T03:04:00.512Z,0.00
2022-08-02T03:05:00.490Z,0.00
2022-08-02T03:06:00.469Z,0.00
2022-08-02T03:07:00.446Z,0.00
2022-08-02T03:08:00.423Z,0.00
2022-08-02T03:09:00.402Z,0.00
2022-08-02T03:10:00.386Z,0.00
2022-08-02T03:11:00.360Z,0.00
2022-08-02T03:12:00.334Z,0.00
2022-08-02T03:13:00.313Z,0.00
2022-08-02T03:14:00.290Z,0.00
2022-08-02T03:15:00.270Z,0.00
2022-08-02T03:16:00.244Z,0.00
2022-08-02T03:17:00.224Z,0.00
2022-08-02T03:18:00.200Z,0.00
2022-08-02T03:19:00.178Z,0.00
2022-08-02T03:20:00.181Z,4.00
2022-08-02T03:21:00.134Z,4.00
2022-08-02T03:22:00.137Z,4.00
2022-08-02T03:23:00.108Z,4.00
2022-08-02T03:24:00.089Z,4.00
2022-08-02T03:25:00.055Z,4.00
2022-08-02T03:26:00.022Z,4.00
2022-08-02T03:26:59.998Z,4.00
2022-08-02T03:27:59.975Z,4.00
2022-08-02T03:28:59.955Z,4.00
2022-08-02T03:29:59.931Z,4.00
2022-08-02T03:30:59.909Z,4.00
2022-08-02T03:31:59.886Z,4.00
2022-08-02T03:32:59.864Z,4.00
2022-08-02T03:33:59.842Z,4.00
2022-08-02T03:34:59.822Z,4.00
2022-08-02T03:35:59.798Z,4.00
2022-08-02T03:36:59.776Z,4.00
2022-08-02T03:37:59.752Z,8.00
2022-08-02T03:38:59.732Z,8.00
2022-08-02T03:39:59.707Z,8.00
2022-08-02T03:40:59.687Z,8.00
2022-08-02T03:41:59.665Z,8.00
2022-08-02T03:42:59.642Z,8.00
2022-08-02T03:43:59.617Z,12.00
2022-08-02T03:45:01.048Z,16.00
2022-08-02T03:45:59.572Z,16.00
2022-08-02T03:46:59.550Z,20.00
2022-08-02T03:47:59.541Z,24.00
2022-08-02T03:48:59.558Z,28.00
2022-08-02T03:49:59.485Z,32.00
2022-08-02T03:50:59.459Z,36.00
2022-08-02T03:51:59.437Z,44.00
2022-08-02T03:52:59.414Z,48.00
2022-08-02T03:53:59.392Z,56.00
2022-08-02T03:54:59.370Z,64.00
2022-08-02T03:55:59.349Z,72.00
2022-08-02T03:56:59.325Z,84.00
2022-08-02T03:57:59.302Z,96.00
2022-08-02T03:58:59.279Z,104.00
2022-08-02T03:59:59.255Z,116.00
2022-08-02T04:00:59.292Z,128.00
2022-08-02T04:01:59.211Z,144.00
2022-08-02T04:02:59.188Z,156.00
2022-08-02T04:03:59.165Z,172.00
2022-08-02T04:04:59.148Z,188.00
2022-08-02T04:06:03.324Z,208.00
2022-08-02T04:06:59.098Z,228.00
2022-08-02T04:08:33.920Z,248.00
2022-08-02T04:08:59.054Z,268.00
2022-08-02T04:09:59.031Z,288.00
2022-08-02T04:10:59.010Z,316.00
2022-08-02T04:11:58.984Z,336.00
2022-08-02T04:12:58.965Z,364.00
2022-08-02T04:13:58.939Z,392.00
2022-08-02T04:14:58.917Z,416.00
2022-08-02T04:15:58.894Z,444.00
2022-08-02T04:16:58.873Z,472.00
2022-08-02T04:17:58.849Z,500.00
2022-08-02T04:18:58.827Z,532.00
2022-08-02T04:19:58.804Z,560.00
2022-08-02T04:20:58.782Z,588.00
2022-08-02T04:21:58.759Z,620.00
2022-08-02T04:22:58.737Z,648.00
2022-08-02T04:23:58.713Z,676.00
2022-08-02T04:24:58.691Z,712.00
2022-08-02T04:25:58.669Z,740.00
2022-08-02T04:27:06.655Z,776.00
2022-08-02T04:28:16.527Z,808.00
2022-08-02T04:28:58.601Z,844.00
2022-08-02T04:29:58.578Z,876.00
2022-08-02T04:30:58.558Z,912.00
2022-08-02T04:31:58.533Z,952.00
2022-08-02T04:32:58.513Z,976.00
2022-08-02T04:33:58.488Z,1020.00
2022-08-02T04:35:18.658Z,1052.00
2022-08-02T04:35:59.832Z,1092.00
2022-08-02T04:36:58.422Z,1116.00
2022-08-02T04:38:09.563Z,1164.00
2022-08-02T04:38:58.377Z,1200.00
2022-08-02T04:39:58.353Z,1236.00
2022-08-02T04:40:58.332Z,1292.00
2022-08-02T04:41:58.309Z,1340.00
2022-08-02T04:42:58.286Z,1380.00
2022-08-02T04:43:58.265Z,1408.00
2022-08-02T04:44:58.245Z,1440.00
2022-08-02T04:45:58.222Z,1476.00
2022-08-02T04:46:58.210Z,1504.00
2022-08-02T04:48:05.670Z,1528.00
2022-08-02T04:48:58.197Z,1548.00
2022-08-02T04:49:58.130Z,1584.00
2022-08-02T04:50:58.108Z,1620.00
2022-08-02T04:51:58.088Z,1644.00
2022-08-02T04:52:58.064Z,1672.00
2022-08-02T04:54:09.295Z,1692.00
2022-08-02T04:54:58.018Z,1720.00
2022-08-02T04:55:57.994Z,1748.00
2022-08-02T04:56:57.974Z,1776.00
2022-08-02T04:57:58.273Z,1792.00
2022-08-02T04:58:57.929Z,1812.00
2022-08-02T04:59:57.911Z,1840.00
2022-08-02T05:00:57.956Z,1860.00
2022-08-02T05:01:57.862Z,1876.00
2022-08-02T05:02:57.841Z,1892.00
2022-08-02T05:03:57.820Z,1932.00
2022-08-02T05:04:57.796Z,1960.00
2022-08-02T05:05:57.774Z,2016.00
2022-08-02T05:06:57.751Z,2076.00
2022-08-02T05:07:57.728Z,2104.00
2022-08-02T05:08:57.707Z,2124.00
2022-08-02T05:09:57.685Z,2160.00
2022-08-02T05:10:57.662Z,2208.00
2022-08-02T05:11:57.639Z,2256.00
2022-08-02T05:12:57.621Z,2304.00
2022-08-02T05:13:59.165Z,2344.00
2022-08-02T05:14:57.573Z,2380.00
2022-08-02T05:15:57.550Z,2424.00
2022-08-02T05:16:57.529Z,2472.00
2022-08-02T05:17:57.506Z,2536.00
2022-08-02T05:18:57.484Z,2604.00
2022-08-02T05:19:57.461Z,2668.00
2022-08-02T05:20:58.349Z,2756.00
2022-08-02T05:21:57.417Z,2848.00
2022-08-02T05:22:57.396Z,2920.00
2022-08-02T05:23:57.375Z,2988.00
2022-08-02T05:24:57.354Z,3056.00
2022-08-02T05:25:57.330Z,3096.00
2022-08-02T05:26:57.309Z,3140.00
2022-08-02T05:27:57.286Z,3184.00
2022-08-02T05:28:57.264Z,3204.00
2022-08-02T05:29:57.276Z,3192.00
2022-08-02T05:30:57.220Z,3124.00
2022-08-02T05:31:57.197Z,3292.00
2022-08-02T05:32:57.177Z,3380.00
2022-08-02T05:33:57.153Z,3400.00
2022-08-02T05:34:57.143Z,3400.00
2022-08-02T05:35:57.109Z,3528.00
2022-08-02T05:36:57.091Z,3624.00
2022-08-02T05:37:57.066Z,3656.00
2022-08-02T05:39:04.680Z,3652.00
2022-08-02T05:39:57.022Z,3708.00
2022-08-02T05:40:57.001Z,3728.00
2022-08-02T05:41:56.979Z,3740.00
2022-08-02T05:42:56.958Z,3852.00
2022-08-02T05:43:56.937Z,3888.00
2022-08-02T05:44:56.914Z,3920.00
2022-08-02T05:45:56.893Z,3956.00
2022-08-02T05:46:56.874Z,4008.00
2022-08-02T05:47:56.848Z,4012.00
2022-08-02T05:48:56.835Z,4012.00
2022-08-02T05:49:56.806Z,4120.00
2022-08-02T05:50:56.784Z,4132.00
2022-08-02T05:51:56.762Z,4140.00
2022-08-02T05:52:56.740Z,4160.00
2022-08-02T05:53:58.225Z,4180.00
2022-08-02T05:54:56.699Z,4216.00
2022-08-02T05:55:56.675Z,4196.00
2022-08-02T05:56:56.658Z,4228.00
2022-08-02T05:57:56.634Z,4276.00
2022-08-02T05:58:56.611Z,4308.00
2022-08-02T05:59:56.595Z,4320.00
2022-08-02T06:00:56.571Z,4392.00
2022-08-02T06:01:56.634Z,4388.00
2022-08-02T06:02:56.526Z,4356.00
2022-08-02T06:03:56.505Z,4348.00
2022-08-02T06:04:56.484Z,4268.00
2022-08-02T06:05:56.462Z,4320.00
2022-08-02T06:06:56.446Z,4404.00
2022-08-02T06:07:56.419Z,4292.00
2022-08-02T06:08:56.398Z,4392.00
2022-08-02T06:09:56.377Z,4496.00
2022-08-02T06:10:56.356Z,4440.00
2022-08-02T06:12:01.597Z,4472.00
2022-08-02T06:12:56.313Z,4664.00
2022-08-02T06:13:56.291Z,4788.00
2022-08-02T06:14:56.270Z,4884.00
2022-08-02T06:15:56.252Z,5048.00
2022-08-02T06:16:56.229Z,5008.00
2022-08-02T06:17:56.210Z,5064.00
2022-08-02T06:18:56.186Z,5068.00
2022-08-02T06:19:56.165Z,5096.00
2022-08-02T06:20:56.145Z,5216.00
2022-08-02T06:22:42.132Z,5280.00
2022-08-02T06:22:56.102Z,5288.00
2022-08-02T06:23:57.651Z,5384.00
2022-08-02T06:24:56.062Z,5472.00
2022-08-02T06:25:56.039Z,5596.00
2022-08-02T06:26:56.018Z,5748.00
2022-08-02T06:27:55.997Z,5884.00
2022-08-02T06:28:55.978Z,5920.00
2022-08-02T06:29:55.956Z,6160.00
2022-08-02T06:30:55.934Z,6024.00
2022-08-02T06:31:55.914Z,6012.00
2022-08-02T06:32:55.893Z,6048.00
2022-08-02T06:33:55.872Z,6060.00
2022-08-02T06:34:55.857Z,6276.00
2022-08-02T06:35:55.833Z,6212.00
2022-08-02T06:36:55.811Z,5760.00
2022-08-02T06:37:58.946Z,5964.00
2022-08-02T06:38:55.771Z,5920.00
2022-08-02T06:39:55.748Z,5652.00
2022-08-02T06:40:55.728Z,5608.00
2022-08-02T06:41:55.707Z,5408.00
2022-08-02T06:42:55.687Z,5372.00
2022-08-02T06:43:55.668Z,5344.00
2022-08-02T06:44:58.145Z,5296.00
2022-08-02T06:45:55.627Z,5184.00
2022-08-02T06:47:11.390Z,5028.00
2022-08-02T06:47:55.585Z,5012.00
2022-08-02T06:48:55.582Z,4540.00
2022-08-02T06:49:55.661Z,4432.00
2022-08-02T06:50:55.522Z,4268.00
2022-08-02T06:51:55.505Z,4208.00
2022-08-02T06:52:55.482Z,4160.00
2022-08-02T06:53:55.462Z,4056.00
2022-08-02T06:54:55.440Z,4048.00
2022-08-02T06:55:55.420Z,4096.00
2022-08-02T06:56:55.400Z,4172.00
2022-08-02T06:57:55.381Z,4024.00
2022-08-02T06:58:55.358Z,4040.00
2022-08-02T06:59:55.342Z,4236.00
2022-08-02T07:00:55.317Z,4176.00
2022-08-02T07:01:55.345Z,4236.00
2022-08-02T07:02:55.276Z,4232.00
2022-08-02T07:03:55.258Z,4344.00
2022-08-02T07:04:55.238Z,4384.00
2022-08-02T07:05:55.222Z,4440.00
2022-08-02T07:06:55.194Z,4500.00
2022-08-02T07:07:55.173Z,4416.00
2022-08-02T07:09:19.479Z,4432.00
2022-08-02T07:09:56.311Z,4568.00
2022-08-02T07:10:55.112Z,4516.00
2022-08-02T07:11:55.093Z,4548.00
2022-08-02T07:12:59.530Z,4564.00
2022-08-02T07:13:55.051Z,4584.00
2022-08-02T07:14:55.028Z,4548.00
2022-08-02T07:15:55.010Z,4564.00
2022-08-02T07:16:54.990Z,4600.00
2022-08-02T07:17:54.971Z,4860.00
2022-08-02T07:18:54.946Z,4732.00
2022-08-02T07:19:54.932Z,4712.00
2022-08-02T07:20:54.907Z,4648.00
2022-08-02T07:21:56.466Z,4464.00
2022-08-02T07:22:54.865Z,4272.00
2022-08-02T07:23:54.845Z,4460.00
2022-08-02T07:24:54.823Z,4264.00
2022-08-02T07:26:02.762Z,4192.00
2022-08-02T07:27:10.519Z,4072.00
2022-08-02T07:27:54.762Z,4196.00
2022-08-02T07:28:54.742Z,4180.00
2022-08-02T07:29:54.725Z,4088.00
2022-08-02T07:30:54.701Z,4028.00
2022-08-02T07:31:54.681Z,4068.00
2022-08-02T07:32:54.660Z,4016.00
2022-08-02T07:33:54.641Z,3928.00
2022-08-02T07:34:55.184Z,3916.00
2022-08-02T07:35:54.599Z,3956.00
2022-08-02T07:36:54.578Z,4036.00
2022-08-02T07:38:02.114Z,4052.00
2022-08-02T07:38:54.537Z,3796.00
2022-08-02T07:39:54.522Z,3844.00
2022-08-02T07:40:54.497Z,3708.00
2022-08-02T07:41:54.476Z,3876.00
2022-08-02T07:42:57.880Z,3552.00
2022-08-02T07:43:54.435Z,3440.00
2022-08-02T07:44:54.415Z,3508.00
2022-08-02T07:45:57.355Z,3780.00
2022-08-02T07:46:54.373Z,3688.00
2022-08-02T07:47:54.355Z,3720.00
2022-08-02T07:48:54.364Z,3644.00
2022-08-02T07:49:54.313Z,3536.00
2022-08-02T07:50:54.292Z,3392.00
2022-08-02T07:51:54.272Z,3584.00
2022-08-02T07:52:57.595Z,3564.00
2022-08-02T07:54:02.721Z,3520.00
2022-08-02T07:54:54.209Z,3592.00
2022-08-02T07:55:54.190Z,3628.00
2022-08-02T07:56:58.207Z,3656.00
2022-08-02T07:57:54.149Z,3756.00
2022-08-02T07:58:54.129Z,3236.00
2022-08-02T07:59:54.109Z,3792.00
2022-08-02T08:00:54.091Z,3800.00
2022-08-02T08:01:54.142Z,3824.00
2022-08-02T08:02:58.569Z,3664.00
2022-08-02T08:03:54.031Z,3492.00
2022-08-02T08:04:54.006Z,3424.00
2022-08-02T08:05:53.987Z,3732.00
2022-08-02T08:06:53.965Z,3740.00
2022-08-02T08:07:53.945Z,4140.00
2022-08-02T08:08:53.923Z,3760.00
2022-08-02T08:09:56.378Z,3760.00
2022-08-02T08:10:53.882Z,3764.00
2022-08-02T08:11:53.863Z,3812.00
2022-08-02T08:12:53.843Z,3844.00
2022-08-02T08:13:53.825Z,3796.00
2022-08-02T08:14:53.802Z,3828.00
2022-08-02T08:15:53.782Z,3900.00
2022-08-02T08:16:53.762Z,3880.00
2022-08-02T08:17:53.742Z,3964.00
2022-08-02T08:18:53.721Z,3944.00
2022-08-02T08:19:53.704Z,3996.00
2022-08-02T08:20:53.681Z,3956.00
2022-08-02T08:21:53.664Z,4100.00
2022-08-02T08:22:53.641Z,4040.00
2022-08-02T08:23:53.621Z,4120.00
2022-08-02T08:24:53.601Z,4060.00
2022-08-02T08:25:53.583Z,4080.00
2022-08-02T08:26:53.560Z,4092.00
2022-08-02T08:27:53.544Z,4100.00
2022-08-02T08:28:53.521Z,4152.00
2022-08-02T08:29:53.501Z,4176.00
2022-08-02T08:30:53.480Z,4176.00
2022-08-02T08:31:53.461Z,4164.00
2022-08-02T08:32:53.440Z,4220.00
2022-08-02T08:33:53.422Z,4216.00
2022-08-02T08:34:53.400Z,4316.00
2022-08-02T08:35:53.382Z,4316.00
2022-08-02T08:36:53.363Z,4488.00
2022-08-02T08:37:53.344Z,4316.00
2022-08-02T08:38:53.320Z,4540.00
2022-08-02T08:39:57.153Z,4688.00
2022-08-02T08:40:53.283Z,4808.00
2022-08-02T08:41:53.266Z,4828.00
2022-08-02T08:42:53.242Z,5116.00
2022-08-02T08:43:53.539Z,5056.00
2022-08-02T08:44:53.204Z,5248.00
2022-08-02T08:45:56.061Z,5120.00
2022-08-02T08:46:53.162Z,4976.00
2022-08-02T08:47:53.147Z,4860.00
2022-08-02T08:48:53.214Z,4684.00
2022-08-02T08:49:53.532Z,4512.00
2022-08-02T08:50:53.082Z,4636.00
2022-08-02T08:51:53.066Z,4560.00
2022-08-02T08:52:53.045Z,4744.00
2022-08-02T08:53:53.025Z,4864.00
2022-08-02T08:54:53.004Z,5028.00
2022-08-02T08:55:52.985Z,5232.00
2022-08-02T08:56:52.965Z,5364.00
2022-08-02T08:57:52.948Z,5376.00
2022-08-02T08:58:52.926Z,5356.00
2022-08-02T08:59:52.907Z,5288.00
2022-08-02T09:00:52.969Z,5284.00
2022-08-02T09:01:52.951Z,5152.00
2022-08-02T09:02:52.847Z,5136.00
2022-08-02T09:03:52.830Z,5148.00
2022-08-02T09:04:54.861Z,5176.00
2022-08-02T09:05:52.791Z,5220.00
2022-08-02T09:06:52.771Z,5208.00
2022-08-02T09:07:52.753Z,5440.00
2022-08-02T09:08:52.731Z,5344.00
2022-08-02T09:09:52.715Z,5176.00
2022-08-02T09:10:52.693Z,5248.00
2022-08-02T09:11:52.674Z,5740.00
2022-08-02T09:12:52.655Z,5380.00
2022-08-02T09:13:52.638Z,5472.00
2022-08-02T09:14:52.623Z,5468.00
2022-08-02T09:15:52.597Z,5616.00
2022-08-02T09:16:52.578Z,5812.00
2022-08-02T09:17:52.560Z,5544.00
2022-08-02T09:18:52.539Z,5348.00
2022-08-02T09:19:52.521Z,5408.00
2022-08-02T09:20:52.501Z,5556.00
2022-08-02T09:21:52.483Z,5680.00
2022-08-02T09:22:52.462Z,5880.00
2022-08-02T09:23:52.444Z,5688.00
2022-08-02T09:24:52.425Z,5628.00
2022-08-02T09:25:57.123Z,5644.00
2022-08-02T09:26:52.385Z,4928.00
2022-08-02T09:27:52.368Z,4828.00
2022-08-02T09:28:52.395Z,5624.00
2022-08-02T09:30:12.333Z,5384.00
2022-08-02T09:30:52.310Z,5252.00
2022-08-02T09:31:52.293Z,5048.00
2022-08-02T09:32:52.272Z,5060.00
2022-08-02T09:33:52.255Z,4832.00
2022-08-02T09:34:52.233Z,4568.00
2022-08-02T09:36:06.548Z,4396.00
2022-08-02T09:36:54.511Z,4304.00
2022-08-02T09:37:52.180Z,4928.00
2022-08-02T09:38:52.159Z,4104.00
2022-08-02T09:39:52.142Z,4072.00
2022-08-02T09:40:52.121Z,3968.00
2022-08-02T09:41:52.106Z,4016.00
2022-08-02T09:42:52.083Z,3980.00
2022-08-02T09:44:05.519Z,3984.00
2022-08-02T09:44:52.046Z,3984.00
2022-08-02T09:45:52.028Z,4064.00
2022-08-02T09:46:52.009Z,3976.00
2022-08-02T09:47:51.990Z,3928.00
2022-08-02T09:48:52.935Z,3984.00
2022-08-02T09:49:52.546Z,3940.00
2022-08-02T09:50:51.933Z,4004.00
2022-08-02T09:51:51.917Z,4000.00
2022-08-02T09:52:51.895Z,4068.00
2022-08-02T09:54:05.947Z,3936.00
2022-08-02T09:54:51.857Z,3960.00
2022-08-02T09:55:51.841Z,4024.00
2022-08-02T09:56:51.827Z,3980.00
2022-08-02T09:57:51.854Z,3976.00
2022-08-02T09:58:51.783Z,4008.00
2022-08-02T09:59:51.764Z,3980.00
2022-08-02T10:00:52.659Z,4024.00
2022-08-02T10:02:01.947Z,4016.00
2022-08-02T10:02:51.709Z,4012.00
2022-08-02T10:03:51.690Z,4052.00
2022-08-02T10:04:52.454Z,4008.00
2022-08-02T10:05:55.885Z,4024.00
2022-08-02T10:06:51.632Z,4000.00
2022-08-02T10:07:51.617Z,4008.00
2022-08-02T10:08:51.596Z,4020.00
2022-08-02T10:09:51.594Z,4020.00
2022-08-02T10:10:51.557Z,4032.00
2022-08-02T10:11:51.542Z,4044.00
2022-08-02T10:12:51.521Z,4212.00
2022-08-02T10:13:51.503Z,4072.00
2022-08-02T10:14:51.485Z,4084.00
2022-08-02T10:15:51.466Z,4056.00
2022-08-02T10:16:51.446Z,4052.00
2022-08-02T10:17:51.429Z,4044.00
2022-08-02T10:18:51.409Z,4056.00
2022-08-02T10:20:02.731Z,4140.00
2022-08-02T10:20:51.373Z,4048.00
2022-08-02T10:21:51.355Z,4036.00
2022-08-02T10:22:51.335Z,4052.00
2022-08-02T10:23:51.317Z,4052.00
2022-08-02T10:24:51.299Z,4032.00
2022-08-02T10:25:51.283Z,4040.00
2022-08-02T10:26:51.261Z,4016.00
2022-08-02T10:28:04.823Z,4056.00
2022-08-02T10:28:51.224Z,4056.00
2022-08-02T10:29:54.101Z,4136.00
2022-08-02T10:30:51.188Z,4092.00
2022-08-02T10:31:51.170Z,4056.00
2022-08-02T10:32:51.151Z,4064.00
2022-08-02T10:33:51.143Z,4076.00
2022-08-02T10:34:51.383Z,4080.00
2022-08-02T10:36:06.824Z,4132.00
2022-08-02T10:36:51.077Z,4204.00
2022-08-02T10:37:51.059Z,4224.00
2022-08-02T10:38:51.040Z,4144.00
2022-08-02T10:39:51.023Z,4152.00
2022-08-02T10:40:51.003Z,4200.00
2022-08-02T10:41:50.987Z,4096.00
2022-08-02T10:42:50.970Z,4100.00
2022-08-02T10:43:50.950Z,4052.00
2022-08-02T10:44:50.932Z,4048.00
2022-08-02T10:45:50.922Z,4088.00
2022-08-02T10:46:50.895Z,4124.00
2022-08-02T10:47:50.877Z,4120.00
2022-08-02T10:48:50.911Z,4168.00
2022-08-02T10:49:50.899Z,4100.00
2022-08-02T10:50:50.821Z,4116.00
2022-08-02T10:51:50.805Z,4160.00
2022-08-02T10:52:50.786Z,4100.00
2022-08-02T10:53:50.770Z,4112.00
2022-08-02T10:54:50.749Z,4112.00
2022-08-02T10:55:50.733Z,4152.00
2022-08-02T10:56:50.713Z,4116.00
2022-08-02T10:57:51.705Z,4052.00
2022-08-02T10:58:50.677Z,4056.00
2022-08-02T10:59:50.658Z,4104.00
2022-08-02T11:00:50.678Z,4088.00
2022-08-02T11:01:50.623Z,4096.00
2022-08-02T11:02:53.403Z,4108.00
2022-08-02T11:03:50.586Z,4076.00
2022-08-02T11:04:50.573Z,4088.00
2022-08-02T11:05:50.552Z,4060.00
2022-08-02T11:06:50.539Z,3952.00
2022-08-02T11:07:50.514Z,4096.00
2022-08-02T11:08:50.498Z,4160.00
2022-08-02T11:09:50.481Z,4148.00
2022-08-02T11:10:50.468Z,4132.00
2022-08-02T11:11:53.741Z,4284.00
2022-08-02T11:12:50.426Z,4184.00
2022-08-02T11:13:50.407Z,4196.00
2022-08-02T11:14:50.390Z,4224.00
2022-08-02T11:15:50.372Z,4296.00
2022-08-02T11:16:50.355Z,4260.00
2022-08-02T11:17:50.336Z,4248.00
2022-08-02T11:18:50.319Z,4176.00
2022-08-02T11:19:50.300Z,4256.00
2022-08-02T11:20:50.284Z,4200.00
2022-08-02T11:21:50.265Z,4240.00
2022-08-02T11:22:50.249Z,4364.00
2022-08-02T11:23:50.231Z,4252.00
2022-08-02T11:24:50.213Z,4280.00
2022-08-02T11:26:10.900Z,4300.00
2022-08-02T11:26:50.177Z,4332.00
2022-08-02T11:27:50.161Z,4352.00
2022-08-02T11:28:50.143Z,4292.00
2022-08-02T11:29:50.251Z,4292.00
2022-08-02T11:30:50.107Z,4304.00
2022-08-02T11:31:50.089Z,4304.00
2022-08-02T11:32:50.072Z,4308.00
2022-08-02T11:33:50.055Z,4372.00
2022-08-02T11:34:50.038Z,4380.00
2022-08-02T11:35:50.019Z,4372.00
2022-08-02T11:36:50.004Z,4376.00
2022-08-02T11:37:49.986Z,4412.00
2022-08-02T11:38:49.973Z,4532.00
2022-08-02T11:39:49.951Z,4620.00
2022-08-02T11:40:49.934Z,4708.00
2022-08-02T11:41:49.918Z,4756.00
2022-08-02T11:42:49.900Z,4656.00
2022-08-02T11:43:49.882Z,4740.00
2022-08-02T11:44:49.865Z,4700.00
2022-08-02T11:45:49.847Z,4664.00
2022-08-02T11:46:49.831Z,4660.00
2022-08-02T11:47:49.813Z,4628.00
2022-08-02T11:48:49.797Z,4596.00
2022-08-02T11:49:49.781Z,4612.00
2022-08-02T11:50:49.766Z,4656.00
2022-08-02T11:51:53.861Z,4636.00
2022-08-02T11:52:49.728Z,4616.00
2022-08-02T11:53:49.711Z,4676.00
2022-08-02T11:54:49.694Z,4668.00
2022-08-02T11:55:49.677Z,4668.00
2022-08-02T11:56:49.663Z,4708.00
2022-08-02T11:58:03.054Z,4660.00
2022-08-02T11:58:49.627Z,4728.00
2022-08-02T11:59:49.609Z,4744.00
2022-08-02T12:00:49.593Z,4764.00
2022-08-02T12:01:49.575Z,4748.00
2022-08-02T12:02:49.598Z,4768.00
2022-08-02T12:03:49.612Z,4744.00
2022-08-02T12:04:49.526Z,4820.00
2022-08-02T12:06:04.471Z,4840.00
2022-08-02T12:06:49.490Z,4868.00
2022-08-02T12:07:49.475Z,4968.00
2022-08-02T12:08:54.407Z,4956.00
2022-08-02T12:09:49.439Z,4964.00
2022-08-02T12:10:49.424Z,4992.00
2022-08-02T12:11:49.406Z,5048.00
2022-08-02T12:12:49.389Z,5080.00
2022-08-02T12:13:56.753Z,5280.00
2022-08-02T12:14:49.355Z,5400.00
2022-08-02T12:15:49.338Z,5572.00
2022-08-02T12:16:49.322Z,5796.00
2022-08-02T12:17:49.318Z,5736.00
2022-08-02T12:18:49.287Z,5580.00
2022-08-02T12:19:49.270Z,5508.00
2022-08-02T12:20:49.257Z,5524.00
2022-08-02T12:21:49.237Z,5424.00
2022-08-02T12:22:49.224Z,5256.00
2022-08-02T12:23:59.656Z,5240.00
2022-08-02T12:24:49.194Z,5284.00
2022-08-02T12:25:49.172Z,5116.00
2022-08-02T12:26:49.155Z,5048.00
2022-08-02T12:27:49.535Z,5104.00